Whittlesey, Wisconsin
Current Conditions -  °F | °C
As of 5:15 AM on Friday 28 Nov 2014 (Local Time) from KMDZ Reporting Station
Light Snow Light Snow  
Wind Chill: -2°   Ceiling: 3800
Heat Index:   Visibility: 5mi
Dew Point:   Wind: 5mph
Humidity: 83%   Direction: 130°SE
Pressure: 30.13"   Gusts: NA
Location:  45.2044°N, 90.4212°W
Report Text: KMDZ 281115Z AUTO 13004KT 5SM -SN BKN038 OVC044 M14/M16 A3013 RMK AO2 T11421165
Loading
Personal Weather Stations






























Interactive Weather Map New forecast layout! Learn more

10-Day Weather Forecast

Advertisements
Track Severe Weather on mobile